Republic, Pennsylvania
Current Conditions -  °F | °C
As of 7:53 PM on Thursday 27 Nov 2014 (Local Time) from KMGW Reporting Station
Light Snow Light Snow  
Wind Chill: 23°   Ceiling: 6500
Heat Index: 30°   Visibility: 9mi
Dew Point: 22°   Wind: 7mph
Humidity: 72%   Direction: 270°W
Pressure: 30.22"   Gusts: NA
Location:  39.96°N, 79.88°W
Report Text: KMGW 280053Z 27006KT 9SM -SN OVC065 M01/M06 A3022 RMK AO2 SLP246 P0000 T10111056
Loading
Personal Weather Stations






























Interactive Weather Map New forecast layout! Learn more

10-Day Weather Forecast

Advertisements
Track Severe Weather on mobile